Time;durP1;ratioP1;P1;durP2;ratioP2;P2;SDS_P1;SDS_P2;PMS_P1;PMS_P2;Temp;Humidity;BMP_temperature;BMP_pressure;BME280_temperature;BME280_humidity;BME280_pressure;Samples;Min_cycle;Max_cycle;Signal;HPM_P1;HPM_P2
2023/08/01 00:01:42;;;;;;;5.80;3.92;;;;;;;21.24;50.60;92750.69;5053113;28;20113;-90
2023/08/01 00:04:07;;;;;;;5.38;3.95;;;;;;;21.26;50.73;92748.13;5038537;28;20512;-89
2023/08/01 00:06:33;;;;;;;5.40;3.90;;;;;;;21.24;50.70;92748.69;5054467;28;20109;-90
2023/08/01 00:08:58;;;;;;;5.85;3.63;;;;;;;21.24;50.70;92742.44;5037879;28;20036;-89
2023/08/01 00:11:24;;;;;;;5.70;4.10;;;;;;;21.25;50.74;92746.66;5069742;28;20051;-90
2023/08/01 00:13:49;;;;;;;5.97;4.15;;;;;;;21.26;50.60;92739.88;5038177;28;20414;-90
2023/08/01 00:16:14;;;;;;;5.28;3.53;;;;;;;21.24;50.75;92745.94;5036408;28;20044;-90
2023/08/01 00:18:40;;;;;;;7.68;4.00;;;;;;;21.24;50.54;92728.72;5054218;28;20047;-89
2023/08/01 00:21:09;;;;;;;5.68;3.88;;;;;;;21.23;50.73;92703.22;5053589;28;20089;-89
2023/08/01 00:23:35;;;;;;;5.05;3.80;;;;;;;21.26;50.81;92720.66;5038576;28;20070;-90
2023/08/01 00:26:00;;;;;;;6.43;3.90;;;;;;;21.23;50.51;92716.25;5053872;28;20036;-91
2023/08/01 00:28:26;;;;;;;5.25;3.47;;;;;;;21.23;50.67;92711.47;5053868;28;20032;-89
2023/08/01 00:31:02;;;;;;;5.90;4.18;;;;;;;21.23;50.74;92716.25;5053514;28;20044;-89
2023/08/01 00:33:28;;;;;;;7.30;3.75;;;;;;;21.22;50.78;92707.25;5053780;28;20036;-90
2023/08/01 00:35:54;;;;;;;6.32;4.03;;;;;;;21.24;50.66;92698.47;5061051;28;20036;-89
2023/08/01 00:38:20;;;;;;;4.85;3.65;;;;;;;21.21;50.78;92705.81;5036740;28;20038;-90
2023/08/01 00:40:46;;;;;;;4.82;3.65;;;;;;;21.24;50.55;92704.69;5050502;28;20059;-90
2023/08/01 00:43:12;;;;;;;5.38;3.80;;;;;;;21.24;50.80;92701.22;5053053;28;20118;-89
2023/08/01 00:45:37;;;;;;;4.53;3.80;;;;;;;21.22;50.72;92699.00;5069554;28;20036;-89
2023/08/01 00:48:03;;;;;;;5.07;3.80;;;;;;;21.23;50.93;92699.75;5052653;28;20501;-90
2023/08/01 00:50:28;;;;;;;4.95;3.33;;;;;;;21.24;50.88;92690.22;5036386;28;20498;-89
2023/08/01 00:52:54;;;;;;;6.25;3.78;;;;;;;21.21;50.81;92672.84;5053690;28;20449;-89
2023/08/01 00:55:19;;;;;;;4.47;3.22;;;;;;;21.19;50.67;92662.34;5034601;28;20406;-89
2023/08/01 00:57:45;;;;;;;5.18;3.58;;;;;;;21.21;50.83;92672.84;5053955;28;20139;-89
2023/08/01 01:00:11;;;;;;;4.28;3.33;;;;;;;21.23;50.80;92658.50;5036426;28;20032;-89
2023/08/01 01:02:36;;;;;;;4.05;2.97;;;;;;;21.21;50.83;92653.59;5069628;28;20041;-89
2023/08/01 01:05:02;;;;;;;5.65;3.58;;;;;;;21.20;50.89;92654.88;5036814;28;20028;-89
2023/08/01 01:07:27;;;;;;;4.78;3.55;;;;;;;21.20;50.94;92641.13;5052101;28;20076;-90
2023/08/01 01:09:53;;;;;;;5.43;3.40;;;;;;;21.22;51.09;92637.84;5037292;28;20036;-89
2023/08/01 01:12:18;;;;;;;5.95;3.40;;;;;;;21.22;50.74;92635.09;5068838;28;20225;-89
2023/08/01 01:14:44;;;;;;;4.43;3.42;;;;;;;21.22;50.85;92635.78;5037029;28;20048;-89
2023/08/01 01:17:09;;;;;;;4.25;3.28;;;;;;;21.20;50.91;92635.63;5054068;28;20033;-90
2023/08/01 01:19:35;;;;;;;4.00;3.08;;;;;;;21.20;50.84;92641.88;5071888;28;20050;-90
2023/08/01 01:22:00;;;;;;;4.57;3.10;;;;;;;21.20;50.84;92639.13;5069874;28;20044;-90
2023/08/01 01:24:26;;;;;;;4.65;3.35;;;;;;;21.21;50.90;92637.09;5052143;28;20036;-89
2023/08/01 01:26:51;;;;;;;5.80;4.00;;;;;;;21.19;50.83;92634.13;5051943;28;20067;-89
2023/08/01 01:29:17;;;;;;;5.40;3.60;;;;;;;21.22;50.83;92629.59;5045781;28;20397;-90
2023/08/01 01:31:42;;;;;;;4.65;3.33;;;;;;;21.22;50.76;92637.84;5052078;28;20505;-89
2023/08/01 01:34:08;;;;;;;6.13;3.80;;;;;;;21.22;50.84;92638.53;5036181;28;20505;-89
2023/08/01 01:36:34;;;;;;;4.90;3.58;;;;;;;21.22;50.81;92635.09;5035611;28;20055;-89
2023/08/01 01:38:59;;;;;;;4.75;3.63;;;;;;;21.24;50.76;92632.50;5069277;28;20104;-89
2023/08/01 01:41:25;;;;;;;5.53;4.03;;;;;;;21.24;50.82;92627.00;5052205;28;20535;-89
2023/08/01 01:43:50;;;;;;;5.10;3.47;;;;;;;21.20;50.94;92622.63;5069506;28;20453;-89
2023/08/01 01:46:17;;;;;;;5.55;3.90;;;;;;;21.21;50.91;92612.38;5051110;28;20032;-89
2023/08/01 01:48:42;;;;;;;4.03;3.20;;;;;;;21.19;50.88;92612.16;5036503;28;20043;-89
2023/08/01 01:51:08;;;;;;;6.47;3.67;;;;;;;21.21;50.81;92609.63;5039805;28;20563;-89
2023/08/01 01:53:33;;;;;;;5.38;3.72;;;;;;;21.19;50.77;92610.13;5035559;28;20037;-89
2023/08/01 01:55:59;;;;;;;4.43;3.17;;;;;;;21.19;50.98;92612.88;5052032;28;20086;-90
2023/08/01 01:58:25;;;;;;;5.32;3.15;;;;;;;21.19;50.82;92601.16;5052077;28;20040;-90
2023/08/01 02:00:50;;;;;;;3.28;2.72;;;;;;;21.20;51.01;92599.91;5050527;28;20039;-89
2023/08/01 02:03:15;;;;;;;5.32;3.13;;;;;;;21.20;50.72;92592.38;5068740;28;20111;-90
2023/08/01 02:05:41;;;;;;;4.63;3.22;;;;;;;21.18;50.72;92583.94;5035245;28;20032;-89
2023/08/01 02:08:06;;;;;;;4.30;3.40;;;;;;;21.21;50.68;92573.88;5067953;28;20401;-90
2023/08/01 02:10:32;;;;;;;4.80;3.45;;;;;;;21.19;50.92;92576.41;5035281;28;20067;-90
2023/08/01 02:12:57;;;;;;;4.10;3.20;;;;;;;21.19;50.89;92582.66;5051788;28;20398;-89
2023/08/01 02:15:23;;;;;;;6.72;3.65;;;;;;;21.19;50.84;92577.16;5083445;28;20047;-89
2023/08/01 02:17:48;;;;;;;4.22;3.33;;;;;;;21.20;50.82;92569.66;5051139;28;20048;-90
2023/08/01 02:20:14;;;;;;;5.15;3.33;;;;;;;21.19;50.83;92565.41;5071685;28;20036;-90
2023/08/01 02:22:39;;;;;;;4.38;3.05;;;;;;;21.19;50.80;92570.91;5051317;28;20063;-89
2023/08/01 02:25:05;;;;;;;4.25;3.17;;;;;;;21.19;50.88;92562.66;5051930;28;20068;-90
2023/08/01 02:27:30;;;;;;;4.65;3.70;;;;;;;21.19;51.01;92568.16;5051900;28;20429;-90
2023/08/01 02:29:57;;;;;;;4.18;3.28;;;;;;;21.20;50.84;92564.16;5053174;28;20036;-89
2023/08/01 02:32:22;;;;;;;5.05;3.45;;;;;;;21.20;50.87;92555.91;5051268;28;20048;-89
2023/08/01 02:34:48;;;;;;;4.97;3.10;;;;;;;21.18;50.80;92561.19;5035708;28;20032;-88
2023/08/01 02:37:13;;;;;;;7.18;3.50;;;;;;;21.18;50.93;92556.44;5045489;28;20490;-89
2023/08/01 02:39:38;;;;;;;6.75;4.25;;;;;;;21.20;50.75;92553.16;5051848;28;20524;-90
2023/08/01 02:42:04;;;;;;;4.43;3.33;;;;;;;21.18;51.03;92550.22;5044795;28;20509;-89
2023/08/01 02:44:29;;;;;;;4.72;3.50;;;;;;;21.17;51.08;92546.72;5068137;28;20103;-89
2023/08/01 02:46:55;;;;;;;4.93;3.65;;;;;;;21.18;50.93;92545.44;5068616;28;20048;-90
2023/08/01 02:49:21;;;;;;;3.80;2.95;;;;;;;21.17;50.94;92546.00;5034681;28;20036;-90
2023/08/01 02:51:46;;;;;;;4.18;3.45;;;;;;;21.18;50.92;92539.94;5050810;28;20040;-89
2023/08/01 02:54:11;;;;;;;4.35;3.33;;;;;;;21.17;50.83;92538.47;5034268;28;20043;-89
2023/08/01 02:56:40;;;;;;;5.20;3.25;;;;;;;21.17;50.84;92532.25;5064767;28;20060;-90
2023/08/01 02:59:08;;;;;;;4.57;3.28;;;;;;;21.17;51.05;92532.97;5051494;28;20497;-89
2023/08/01 03:01:34;;;;;;;4.63;3.40;;;;;;;21.16;50.93;92517.03;5035077;28;20051;-89
2023/08/01 03:04:00;;;;;;;5.45;3.95;;;;;;;21.17;51.00;92535.00;5035510;28;20032;-89
2023/08/01 03:06:25;;;;;;;3.35;2.70;;;;;;;21.18;50.84;92530.97;5037163;28;20040;-90
2023/08/01 03:08:51;;;;;;;4.30;3.35;;;;;;;21.17;50.82;92535.72;5064109;28;20037;-89
2023/08/01 03:11:16;;;;;;;3.90;2.92;;;;;;;21.19;51.07;92518.69;5019993;28;20059;-89
2023/08/01 03:13:41;;;;;;;3.58;2.92;;;;;;;21.17;50.85;92522.00;5050844;28;20045;-90
2023/08/01 03:16:07;;;;;;;3.85;2.95;;;;;;;21.17;50.98;92521.25;5063694;28;20914;-89
2023/08/01 03:18:32;;;;;;;4.45;3.65;;;;;;;21.17;50.90;92513.75;5035571;28;20044;-89
2023/08/01 03:20:58;;;;;;;4.40;3.38;;;;;;;21.17;51.06;92504.75;5054803;28;20036;-89
2023/08/01 03:23:23;;;;;;;3.60;2.97;;;;;;;21.17;50.97;92500.00;5054678;28;20048;-91
2023/08/01 03:25:49;;;;;;;5.93;2.97;;;;;;;21.19;51.27;92502.94;5055681;28;20436;-89
2023/08/01 03:28:14;;;;;;;6.25;3.38;;;;;;;21.19;50.77;92500.19;5054442;28;20044;-90
2023/08/01 03:30:39;;;;;;;7.03;3.30;;;;;;;21.20;50.97;92498.19;5055213;28;20547;-91
2023/08/01 03:33:05;;;;;;;11.93;4.90;;;;;;;21.35;51.29;92500.19;5055294;28;20364;-89
2023/08/01 03:35:30;;;;;;;37.35;31.27;;;;;;;21.30;50.78;92499.09;5055847;28;20093;-87
2023/08/01 03:37:56;;;;;;;18.98;13.18;;;;;;;21.38;50.94;92490.84;5052677;28;20044;-87
2023/08/01 03:40:21;;;;;;;26.52;14.35;;;;;;;21.36;50.93;92491.41;5054547;28;20101;-91
2023/08/01 03:42:46;;;;;;;8.02;4.85;;;;;;;21.39;50.88;92495.06;5054116;28;20513;-89
2023/08/01 03:45:12;;;;;;;13.10;6.05;;;;;;;21.46;50.64;92494.28;5039060;28;20050;-89
2023/08/01 03:47:37;;;;;;;207.57;115.10;;;;;;;21.44;50.58;92502.38;5061919;28;20059;-91
2023/08/01 03:50:03;;;;;;;13.25;6.10;;;;;;;21.38;50.66;92507.34;5072766;28;20318;-91
2023/08/01 03:52:28;;;;;;;17.55;4.97;;;;;;;21.38;50.65;92505.31;5071696;28;20059;-92
2023/08/01 03:54:54;;;;;;;80.65;23.75;;;;;;;21.38;50.67;92499.81;5041654;28;20134;-91
2023/08/01 03:57:20;;;;;;;15.57;6.00;;;;;;;21.32;50.78;92504.78;5047404;28;20151;-92
2023/08/01 03:59:46;;;;;;;10.07;6.28;;;;;;;21.28;50.93;92507.16;5040418;28;20132;-90
2023/08/01 04:02:11;;;;;;;8.80;5.20;;;;;;;21.38;50.77;92499.81;5069660;28;20032;-90
2023/08/01 04:04:36;;;;;;;17.80;7.97;;;;;;;21.27;51.13;92499.47;5055300;28;20036;-89
2023/08/01 04:07:02;;;;;;;36.40;9.30;;;;;;;21.29;50.98;92494.16;5057936;28;20040;-90
2023/08/01 04:09:27;;;;;;;21.25;8.00;;;;;;;21.23;51.41;92496.34;5073550;28;20046;-90
2023/08/01 04:11:53;;;;;;;35.58;11.75;;;;;;;21.20;51.42;92495.44;5060676;28;20035;-91
2023/08/01 04:14:18;;;;;;;52.60;20.88;;;;;;;21.22;51.28;92500.41;5060928;28;20048;-90
2023/08/01 04:16:44;;;;;;;163.15;45.60;;;;;;;21.17;51.67;92493.78;5071360;28;20032;-90
2023/08/01 04:19:09;;;;;;;102.85;32.00;;;;;;;21.17;51.62;92502.75;5053854;28;20508;-89
2023/08/01 04:21:36;;;;;;;86.78;23.58;;;;;;;21.17;51.91;92504.75;5059682;28;20040;-89
2023/08/01 04:24:01;;;;;;;95.50;24.80;;;;;;;21.20;51.80;92514.69;5053952;28;20496;-90
2023/08/01 04:26:27;;;;;;;60.47;22.20;;;;;;;21.14;51.94;92509.34;5061272;28;20036;-90
2023/08/01 04:28:53;;;;;;;50.47;18.00;;;;;;;21.09;52.35;92493.78;5053112;28;20058;-90
2023/08/01 04:31:19;;;;;;;49.15;19.98;;;;;;;21.09;52.52;92498.53;5045779;28;20036;-92
2023/08/01 04:33:44;;;;;;;43.88;20.50;;;;;;;21.10;52.38;92508.97;5038818;28;20043;-91
2023/08/01 04:36:12;;;;;;;65.90;26.80;;;;;;;21.10;52.28;92503.47;5077587;28;20043;-91
2023/08/01 04:38:42;;;;;;;65.72;31.80;;;;;;;21.10;52.60;92497.97;5061834;28;20043;-93
2023/08/01 04:41:24;;;;;;;58.47;28.67;;;;;;;21.11;52.31;92484.97;5044825;28;20040;-91
2023/08/01 04:43:53;;;;;;;82.22;35.38;;;;;;;21.15;52.27;92482.59;5117302;27;20040;-91
2023/08/01 04:46:25;;;;;;;78.05;32.35;;;;;;;21.14;52.35;92467.38;5065947;28;20065;-93
2023/08/01 04:48:52;;;;;;;96.88;39.35;;;;;;;21.16;52.09;92470.31;5061733;28;20046;-93
2023/08/01 04:51:17;;;;;;;104.65;43.78;;;;;;;21.19;52.03;92460.97;5063987;28;20053;-92
2023/08/01 04:53:42;;;;;;;104.38;43.70;;;;;;;21.19;51.97;92463.72;5089046;28;20048;-92
2023/08/01 04:56:08;;;;;;;112.47;43.20;;;;;;;21.19;51.93;92458.97;5059716;28;20051;-92
2023/08/01 04:58:33;;;;;;;93.05;42.35;;;;;;;21.20;51.83;92465.94;5059285;28;20055;-92
2023/08/01 05:01:00;;;;;;;108.00;46.92;;;;;;;21.23;52.30;92461.34;5054153;28;20039;-90
2023/08/01 05:03:25;;;;;;;116.93;45.08;;;;;;;21.23;52.13;92464.09;5038003;28;20040;-93
2023/08/01 05:05:51;;;;;;;110.85;43.75;;;;;;;21.22;52.24;92473.63;5076189;28;20040;-94
2023/08/01 05:08:16;;;;;;;126.35;48.20;;;;;;;21.26;52.29;92470.50;5060179;28;20036;-91
2023/08/01 05:10:41;;;;;;;109.75;44.35;;;;;;;21.21;52.35;92480.44;5074813;28;20410;-92
2023/08/01 05:13:07;;;;;;;120.03;43.10;;;;;;;21.24;52.51;92481.31;5070048;28;20135;-92
2023/08/01 05:15:32;;;;;;;105.25;42.67;;;;;;;21.29;52.23;92494.16;5048223;28;20048;-89
2023/08/01 05:17:57;;;;;;;101.40;41.03;;;;;;;;;;5035757;28;20514;-92
2023/08/01 05:20:25;;;;;;;89.63;39.33;;;;;;;21.28;52.48;92514.66;5059016;28;20047;-91
2023/08/01 05:22:52;;;;;;;103.20;43.25;;;;;;;21.29;52.24;92518.88;5054010;28;20111;-91
2023/08/01 05:25:18;;;;;;;103.20;44.33;;;;;;;21.24;52.80;92515.03;5082712;28;20085;-94
2023/08/01 05:27:44;;;;;;;111.03;43.67;;;;;;;21.25;52.52;92515.75;5040791;28;20040;-95
2023/08/01 05:30:10;;;;;;;115.53;46.10;;;;;;;21.29;52.48;92516.88;5053418;28;20040;-92
2023/08/01 05:32:36;;;;;;;115.75;47.17;;;;;;;21.27;52.45;92516.69;5037270;28;20044;-96
2023/08/01 05:35:01;;;;;;;111.28;49.30;;;;;;;21.28;52.49;92500.91;5052573;28;20063;-93
2023/08/01 05:37:27;;;;;;;134.63;55.42;;;;;;;21.31;52.38;92508.81;5056240;28;20444;-92
2023/08/01 05:39:52;;;;;;;154.18;53.45;;;;;;;21.29;52.56;92496.88;5034127;28;20098;-93
2023/08/01 05:42:18;;;;;;;133.95;55.17;;;;;;;21.29;52.45;92503.13;5036436;28;20032;-92
2023/08/01 05:44:43;;;;;;;141.40;56.47;;;;;;;21.30;52.60;92498.34;5047466;28;20032;-91
2023/08/01 05:47:09;;;;;;;134.45;55.65;;;;;;;21.31;52.68;92499.81;5050715;28;20036;-93
2023/08/01 05:49:35;;;;;;;147.27;62.47;;;;;;;21.28;52.55;92495.44;5051130;28;20036;-91
2023/08/01 05:52:01;;;;;;;136.77;60.47;;;;;;;21.30;52.45;92488.09;5053387;28;20161;-95
2023/08/01 05:54:27;;;;;;;154.13;55.17;;;;;;;21.31;52.97;92500.56;5056096;28;20509;-92
2023/08/01 05:56:52;;;;;;;144.05;60.15;;;;;;;21.29;52.54;92496.88;5073791;28;20036;-91
2023/08/01 05:59:18;;;;;;;132.48;57.17;;;;;;;21.32;52.76;92493.78;5055630;28;20036;-91
2023/08/01 06:01:44;;;;;;;135.52;59.05;;;;;;;21.31;52.58;92497.06;5047296;28;20486;-90
2023/08/01 06:04:09;;;;;;;126.80;58.10;;;;;;;21.35;52.80;92502.94;5069061;28;20040;-91
2023/08/01 06:06:35;;;;;;;174.10;104.50;;;;;;;21.44;53.09;92499.63;5035609;28;20043;-93
2023/08/01 06:09:00;;;;;;;166.10;91.25;;;;;;;21.44;52.99;92510.59;5076512;28;20044;-91
2023/08/01 06:11:26;;;;;;;112.05;50.20;;;;;;;21.45;52.98;92509.31;5055177;28;20117;-93
2023/08/01 06:13:52;;;;;;;106.57;48.55;;;;;;;21.50;53.06;92508.41;5054835;28;20044;-93
2023/08/01 06:16:17;;;;;;;105.88;49.28;;;;;;;21.47;52.95;92507.50;5043261;28;20041;-91
2023/08/01 06:18:43;;;;;;;137.55;69.22;;;;;;;21.49;52.50;92512.44;5037695;28;20589;-93
2023/08/01 06:21:08;;;;;;;109.57;57.42;;;;;;;21.50;53.23;92511.88;5067160;28;20043;-92
2023/08/01 06:23:34;;;;;;;122.55;65.30;;;;;;;21.50;52.69;92522.16;5034451;28;20052;-90
2023/08/01 06:25:59;;;;;;;88.38;46.28;;;;;;;21.44;53.16;92518.84;5050044;28;20040;-94
2023/08/01 06:28:25;;;;;;;85.57;46.72;;;;;;;21.44;53.10;92514.09;5050180;28;20044;-89
2023/08/01 06:30:53;;;;;;;88.45;45.05;;;;;;;21.40;53.33;92513.75;5068354;28;20122;-93
2023/08/01 06:33:20;;;;;;;81.05;44.38;;;;;;;21.40;53.11;92527.50;5050318;28;20127;-93
2023/08/01 06:35:47;;;;;;;93.57;49.80;;;;;;;21.36;52.84;92521.63;5050343;28;20052;-93
2023/08/01 06:38:14;;;;;;;87.50;44.22;;;;;;;21.40;53.14;92510.28;5016552;28;20910;-93
2023/08/01 06:40:40;;;;;;;74.70;39.38;;;;;;;21.37;53.23;92522.38;5034920;28;20489;-93
2023/08/01 06:43:05;;;;;;;84.88;45.05;;;;;;;21.35;53.14;92522.91;5031938;28;20056;-92
2023/08/01 06:45:31;;;;;;;69.53;38.92;;;;;;;21.34;53.49;92517.97;5033026;28;20048;-92
2023/08/01 06:47:56;;;;;;;59.45;33.22;;;;;;;21.35;53.17;92516.69;5023621;28;20041;-92
2023/08/01 06:50:26;;;;;;;58.50;32.60;;;;;;;21.34;53.34;92504.97;5037266;28;20048;-92
2023/08/01 06:52:51;;;;;;;74.07;38.50;;;;;;;21.33;53.28;92506.25;5032888;28;20040;-92
2023/08/01 06:55:17;;;;;;;73.82;39.30;;;;;;;21.39;53.54;92515.03;5035305;28;20585;-91
2023/08/01 06:57:42;;;;;;;62.92;35.95;;;;;;;21.38;53.66;92499.09;5034123;28;20040;-92
2023/08/01 07:00:08;;;;;;;60.90;35.63;;;;;;;21.38;53.57;92488.81;5038599;28;20040;-88
2023/08/01 07:02:34;;;;;;;72.97;37.75;;;;;;;21.36;53.36;92504.41;5026111;28;20119;-90
2023/08/01 07:04:59;;;;;;;69.53;36.55;;;;;;;21.37;53.41;92497.63;5018025;28;20056;-89
2023/08/01 07:07:25;;;;;;;67.53;35.17;;;;;;;21.39;53.40;92509.53;5039295;28;20054;-91
2023/08/01 07:09:50;;;;;;;79.10;37.42;;;;;;;21.38;53.86;92513.56;5038502;28;20494;-89
2023/08/01 07:12:21;;;;;;;79.68;39.95;;;;;;;21.38;53.46;92504.59;5036197;28;20049;-88
2023/08/01 07:14:50;;;;;;;85.82;41.63;;;;;;;21.37;53.51;92492.84;5052591;28;20162;-89
2023/08/01 07:17:15;;;;;;;66.60;33.72;;;;;;;21.38;53.91;92488.09;5021661;28;20044;-92
2023/08/01 07:19:41;;;;;;;77.78;41.03;;;;;;;21.38;53.70;92483.31;5053972;28;20066;-93
2023/08/01 07:22:06;;;;;;;93.38;43.58;;;;;;;21.36;53.67;92499.63;5056069;28;20103;-91
2023/08/01 07:24:35;;;;;;;141.88;54.72;;;;;;;21.37;53.39;92492.13;5058860;28;20047;-92
2023/08/01 07:27:00;;;;;;;107.10;47.85;;;;;;;21.38;53.67;92493.59;5062596;28;20115;-91
2023/08/01 07:29:26;;;;;;;126.78;61.08;;;;;;;21.38;53.57;92488.81;5060490;28;20036;-91
2023/08/01 07:31:51;;;;;;;131.80;64.53;;;;;;;21.40;53.66;92474.53;5046251;28;20090;-92
2023/08/01 07:34:17;;;;;;;117.80;53.97;;;;;;;21.39;53.57;92481.31;5030053;28;20044;-92
2023/08/01 07:36:42;;;;;;;123.75;58.30;;;;;;;21.37;53.48;92481.13;5021552;28;20040;-91
2023/08/01 07:39:08;;;;;;;151.57;75.95;;;;;;;21.39;53.89;92484.06;5022322;28;20053;-91
2023/08/01 07:41:34;;;;;;;153.45;77.93;;;;;;;21.39;54.24;92476.53;5023700;28;20040;-91
2023/08/01 07:44:02;;;;;;;149.80;81.88;;;;;;;21.41;54.09;92473.97;5036769;28;20064;-92
2023/08/01 07:46:27;;;;;;;168.55;87.03;;;;;;;21.38;54.12;92475.06;5021933;28;20044;-92
2023/08/01 07:48:54;;;;;;;153.52;79.63;;;;;;;21.40;53.54;92469.03;5037013;28;20407;-91
2023/08/01 07:51:19;;;;;;;137.90;71.35;;;;;;;21.41;53.82;92467.75;5038725;28;20035;-91
2023/08/01 07:53:44;;;;;;;137.95;68.38;;;;;;;21.39;54.08;92468.28;5020619;28;20041;-92
2023/08/01 07:56:10;;;;;;;113.75;60.42;;;;;;;21.41;54.03;92465.00;5012589;28;20044;-92
2023/08/01 07:58:36;;;;;;;115.70;60.80;;;;;;;21.42;54.26;92467.19;5022283;28;20040;-91
2023/08/01 08:01:06;;;;;;;96.15;52.88;;;;;;;21.41;54.41;92468.47;5022310;28;20064;-92
2023/08/01 08:03:31;;;;;;;92.82;52.70;;;;;;;21.41;54.51;92470.50;5030510;28;20546;-89
2023/08/01 08:05:57;;;;;;;71.40;39.72;;;;;;;21.38;55.63;92466.09;5054113;28;20036;-91
2023/08/01 08:08:23;;;;;;;81.50;42.35;;;;;;;21.35;55.89;92469.94;5066344;28;20593;-90
2023/08/01 08:10:48;;;;;;;81.28;44.83;;;;;;;21.34;55.89;92471.97;5070558;28;20044;-92
2023/08/01 08:13:13;;;;;;;107.18;40.97;;;;;;;21.35;56.15;92465.19;5059599;28;20059;-93
2023/08/01 08:15:40;;;;;;;137.45;44.67;;;;;;;21.30;56.09;92466.09;5052051;28;20032;-91
2023/08/01 08:18:06;;;;;;;144.82;53.85;;;;;;;21.33;56.06;92461.53;5061936;28;20129;-89
2023/08/01 08:20:33;;;;;;;123.40;51.45;;;;;;;21.27;56.20;92469.94;5051288;28;20040;-91
2023/08/01 08:23:14;;;;;;;121.50;50.28;;;;;;;21.29;56.36;92461.88;5059398;28;20089;-91
2023/08/01 08:25:40;;;;;;;81.97;37.78;;;;;;;21.30;56.57;92479.13;4995014;28;20052;-91
2023/08/01 08:28:07;;;;;;;72.43;33.47;;;;;;;21.26;56.81;92465.00;4998015;28;20117;-89
2023/08/01 08:30:35;;;;;;;108.15;41.83;;;;;;;21.27;56.87;92474.72;5012218;28;20049;-89
2023/08/01 08:33:04;;;;;;;81.80;32.75;;;;;;;21.30;57.03;92470.88;5032595;28;20045;-89
2023/08/01 08:35:30;;;;;;;65.28;27.48;;;;;;;21.27;57.49;92467.19;5015258;28;20547;-89
2023/08/01 08:37:56;;;;;;;50.72;20.42;;;;;;;21.20;57.88;92462.47;4999539;28;20057;-92
2023/08/01 08:40:22;;;;;;;39.47;18.52;;;;;;;21.12;58.39;92450.72;5005063;28;20048;-92
2023/08/01 08:42:47;;;;;;;32.63;17.33;;;;;;;21.16;58.75;92442.84;4998905;28;20041;-91
2023/08/01 08:45:13;;;;;;;38.38;17.88;;;;;;;21.16;58.55;92434.59;4994953;28;20119;-92
2023/08/01 08:47:39;;;;;;;31.20;17.90;;;;;;;21.16;58.82;92431.84;5032325;28;20439;-93
2023/08/01 08:50:06;;;;;;;23.27;14.48;;;;;;;21.17;58.56;92428.53;5015243;28;20790;-92
2023/08/01 08:52:31;;;;;;;27.90;14.57;;;;;;;21.12;58.67;92423.22;5008738;28;20069;-91
2023/08/01 08:54:57;;;;;;;26.58;13.70;;;;;;;21.14;58.75;92429.66;5015904;28;20079;-93
2023/08/01 08:57:25;;;;;;;25.33;12.20;;;;;;;21.10;59.09;92432.03;5021073;28;20134;-94
2023/08/01 08:59:51;;;;;;;37.72;17.23;;;;;;;21.10;59.45;92423.06;4995482;28;20480;-93
2023/08/01 09:02:17;;;;;;;45.85;25.40;;;;;;;21.05;59.43;92430.19;4996465;28;20040;-92
2023/08/01 09:04:42;;;;;;;54.90;25.83;;;;;;;21.08;59.26;92428.38;5041650;28;20047;-92
2023/08/01 09:07:09;;;;;;;43.55;17.80;;;;;;;21.08;59.57;92436.59;5058230;28;20105;-92
2023/08/01 09:09:34;;;;;;;43.67;19.90;;;;;;;21.06;59.69;92428.91;5057758;28;20127;-93
2023/08/01 09:12:00;;;;;;;34.28;16.55;;;;;;;21.06;59.71;92428.19;5041344;28;20600;-93
2023/08/01 09:14:25;;;;;;;27.48;13.38;;;;;;;21.10;59.71;92423.06;5044645;28;20520;-93
2023/08/01 09:16:56;;;;;;;24.67;12.60;;;;;;;21.06;59.61;92422.69;5059456;28;20047;-93
2023/08/01 09:19:22;;;;;;;;;;;;;;;21.03;59.81;92419.03;5055181;28;20062;-93
2023/08/01 09:21:47;;;;;;;61.13;28.08;;;;;;;20.96;60.20;92419.78;5057155;28;19955;-93
2023/08/01 09:24:18;;;;;;;118.05;59.53;;;;;;;20.98;59.90;92427.47;5055739;28;20038;-94
2023/08/01 09:26:46;;;;;;;72.35;36.45;;;;;;;21.02;59.96;92423.06;5057911;28;20051;-91
2023/08/01 09:29:11;;;;;;;78.00;36.85;;;;;;;20.99;60.17;92428.94;5043071;28;20058;-92
2023/08/01 09:31:39;;;;;;;88.43;36.55;;;;;;;21.06;60.00;92426.16;5052767;28;20497;-94
2023/08/01 09:34:17;;;;;;;74.05;26.75;;;;;;;21.01;60.13;92418.09;5043063;28;20037;-92
2023/08/01 09:36:42;;;;;;;60.80;22.55;;;;;;;21.05;60.01;92427.44;5058955;28;20044;-93
2023/08/01 09:39:08;;;;;;;58.85;20.67;;;;;;;21.03;60.13;92427.25;5051979;28;20036;-93
2023/08/01 09:41:33;;;;;;;53.40;19.08;;;;;;;21.03;60.22;92421.78;5058293;28;20044;-93
2023/08/01 09:44:00;;;;;;;37.67;18.85;;;;;;;21.00;60.34;92422.88;5060030;28;20044;-91
2023/08/01 09:46:25;;;;;;;46.38;19.98;;;;;;;20.99;60.24;92423.44;5056576;28;20036;-93
2023/08/01 09:48:51;;;;;;;66.35;20.75;;;;;;;20.98;60.41;92424.72;5047657;28;20067;-92
2023/08/01 09:51:17;;;;;;;54.38;17.98;;;;;;;21.00;60.74;92420.13;5056414;28;20052;-94
2023/08/01 09:53:56;;;;;;;232.40;36.75;;;;;;;21.06;60.67;92419.94;5057353;28;20273;-94
2023/08/01 09:56:25;;;;;;;77.53;20.05;;;;;;;21.03;60.79;92427.25;5053653;28;20036;-92
2023/08/01 09:58:53;;;;;;;53.13;19.23;;;;;;;21.11;60.64;92424.50;5063924;28;20359;-91
2023/08/01 10:01:20;;;;;;;71.78;19.00;;;;;;;21.14;60.52;92417.91;5044829;28;20040;-92
2023/08/01 10:03:48;;;;;;;62.65;19.38;;;;;;;21.05;60.79;92423.97;5061461;28;20126;-92
2023/08/01 10:06:17;;;;;;;44.78;16.27;;;;;;;21.04;60.76;92428.00;5052783;28;20050;-93
2023/08/01 10:08:43;;;;;;;40.15;13.35;;;;;;;21.01;61.08;92429.09;5053725;28;20040;-92
2023/08/01 10:11:08;;;;;;;31.27;11.52;;;;;;;21.01;61.04;92429.09;5051237;28;20047;-92
2023/08/01 10:13:33;;;;;;;33.30;11.05;;;;;;;21.01;61.01;92427.09;5052959;28;20043;-92
2023/08/01 10:15:59;;;;;;;29.83;10.02;;;;;;;21.01;61.12;92426.34;5053093;28;20040;-93
2023/08/01 10:18:25;;;;;;;33.30;10.25;;;;;;;21.03;61.36;92412.78;5032706;28;20052;-93
2023/08/01 10:20:51;;;;;;;25.55;9.70;;;;;;;21.00;61.63;92402.94;5008818;28;20051;-93
2023/08/01 10:23:17;;;;;;;21.00;8.57;;;;;;;21.01;61.38;92398.88;5029592;28;20354;-91
2023/08/01 10:25:42;;;;;;;22.90;8.45;;;;;;;20.98;61.45;92395.25;5034112;28;20040;-91
2023/08/01 10:28:17;;;;;;;20.40;8.45;;;;;;;21.00;61.13;92389.91;5038975;28;20048;-92
2023/08/01 10:30:42;;;;;;;15.57;7.55;;;;;;;20.99;61.34;92391.22;5063407;28;20108;-92
2023/08/01 10:33:12;;;;;;;13.82;7.47;;;;;;;20.98;61.77;92389.75;5021371;28;20044;-91
2023/08/01 10:35:38;;;;;;;13.93;6.72;;;;;;;21.01;61.50;92385.13;5022985;28;20209;-91
2023/08/01 10:38:08;;;;;;;14.88;6.90;;;;;;;20.96;61.47;92384.06;5019941;28;20092;-92
2023/08/01 10:40:39;;;;;;;13.68;6.78;;;;;;;21.02;61.50;92384.59;5047116;28;20036;-92
2023/08/01 10:43:05;;;;;;;11.77;6.38;;;;;;;20.99;61.39;92391.22;5033563;28;20129;-91
2023/08/01 10:45:32;;;;;;;12.23;5.93;;;;;;;21.01;61.68;92387.88;5041252;28;20053;-92
2023/08/01 10:48:08;;;;;;;15.95;5.15;;;;;;;21.02;61.77;92383.84;5019090;28;20052;-91
2023/08/01 10:50:33;;;;;;;14.52;6.00;;;;;;;21.04;61.14;92384.03;5003423;28;20049;-92
2023/08/01 10:53:08;;;;;;;13.55;5.93;;;;;;;21.02;61.56;92392.81;5038598;28;20044;-91
2023/08/01 10:55:45;;;;;;;18.15;9.25;;;;;;;21.03;61.43;92396.31;5047936;28;20593;-90
2023/08/01 10:58:10;;;;;;;13.23;6.38;;;;;;;21.03;61.46;92394.28;5046606;28;20041;-90
2023/08/01 11:00:36;;;;;;;25.42;10.75;;;;;;;21.11;61.44;92389.53;5049807;28;20047;-90
2023/08/01 11:03:02;;;;;;;53.92;14.80;;;;;;;21.14;61.87;92391.16;5034666;28;20510;-93
2023/08/01 11:05:29;;;;;;;39.15;16.33;;;;;;;21.08;62.16;92396.13;5015376;28;20052;-91
2023/08/01 11:07:59;;;;;;;57.25;16.60;;;;;;;21.09;61.69;92396.84;5038000;28;20052;-90
2023/08/01 11:10:26;;;;;;;35.63;11.33;;;;;;;21.08;61.77;92376.16;5042081;28;20123;-91
2023/08/01 11:12:53;;;;;;;50.30;11.02;;;;;;;21.08;61.47;92392.63;5038640;28;20045;-91
2023/08/01 11:15:20;;;;;;;26.98;9.40;;;;;;;21.05;61.83;92388.97;5023217;28;20033;-91
2023/08/01 11:17:47;;;;;;;91.93;28.63;;;;;;;21.02;61.46;92395.56;5071979;28;20088;-91